Adak, AK (99546)

11:02 AM HADT on July 29, 2014 (GMT -0900)
Adak (PADK) Elev 13 ft | 51.88 °N, 176.65 °W | Change Station

Current weather conditions updated 6 minutes ago

Overcast
Overcast
57 °F
Feels Like 57 °F
N
14
Wind Variable Wind from SSE

Today is forecast to be Warmer than yesterday. Showers late tonight.

Today
High -- | Low -- °F
--% Chance of Precip.
Yesterday
High -- | Low -- °F
Precip. -- in
7:04 AM 10:40 PM
Waxing Crescent, 7% visible
Pressure 30.11 in
Visibility 10.0 miles
Clouds Overcast 600 ft
Dew Point 52 °F
Humidity 82%
Rainfall 0.01 in
Snow Depth Not available.
UV 1 out of 12
Pollen Not available.
Air Quality Not available.
Flu Activity Not available.
METAR PADK 291956Z 16012KT 10SM OVC006 14/11 A3011 RMK AO1

More Conditions Fewer Conditions

Pressure 30.11 in
Visibility 10.0 miles
Clouds Overcast 600 ft
Dew Point 52 °F
Humidity 82%
Rainfall 0.01 in
Snow Depth Not available.
UV 1 out of 12
Pollen Not available.
Air Quality Not available.
Flu Activity Not available.
METAR PADK 291956Z 16012KT 10SM OVC006 14/11 A3011 RMK AO1

More Conditions Fewer Conditions

10-Day Weather Forecast

Almanac

Astronomy

Jul. 29, 2014 Rise Set
Actual Time 7:04 AM HADT 10:40 PM HADT
Civil Twilight 6:23 AM HADT 11:21 PM HADT
Nautical Twilight 5:25 AM HADT 12:18 AM HADT
Astronomical Twilight 3:58 AM HADT 1:42 AM HADT
Moon 10:22 AM HADT 11:28 PM HADT
Length of Visible Light 16h 58m
Length of Day
15h 35m
Tomorrow will be 3m 6s shorter.
Waxing Crescent, 7% of the Moon is Illuminated
Today
Waxing Crescent
Aug 3
First Quarter
Aug 10
Full
Aug 17
Last Quarter
Aug 25
New

Today's Extremes

State Highs State Lows

Community

WunderPhotos

Upload Photos

1,738,843 photos uploaded!

Nearby

Snow Depth

Station Depth Elevation
Rocky Point 2 in 500 ft
Port Graham 0 in 300 ft
Mcneil Canyon 1 in 1320 ft
MF Bradley River 217 in 2300 ft
Cooper Lake 28 in 1200 ft

Earthquake Activity

City Distance Mag. Time & Date
No recent earthquake activity has been reported nearby.
Minimum magnitude displayed is 2.5.

Coastal Water Temperatures

Place Temperature
No Stations Reporting

Nearby Weather Stations

There are no personal weather stations in this area.